Dest Fox Harbr Too — ZCXB6 — position and weather

sailwx.info

Track history (hours):
 
Tides and Currents Weather Stations Pressure Air Temp Water Temp Dewpoint Dewpoint Depression Visibility Wind Speed Wind Dir Waves Ship Positions

Dest Fox Harbr Too

Last reported at 2016-May-28 16:29 UTC. Time now 2016-May-29 03:49 UTC.
Position N 44°08' E 008°16'.

Length 50 m; draft 2.4 m.

Type: Pleasure craft. MMSI: 319370000.

Date/timePositionNaut miles runAvg speedWind from/ knotsBaromVisibWave heightAir tempDewpointWater temp
2016-May-28 16:29N 44°08' E 008°16'0 0.0
2016-May-28 15:32N 44°08' E 008°16'0 0.0
2016-May-28 08:29N 44°08' E 008°16'0 0.0
2016-May-28 07:17N 44°08' E 008°16'0 0.0
2016-May-28 01:20N 44°08' E 008°16'0 0.0
2016-May-28 00:29N 44°08' E 008°16'54 7.8
2016-May-27 17:29N 43°34' E 007°17'8 8.1
2016-May-27 16:30N 43°34' E 007°06'0 0.0
2016-May-27 15:24N 43°34' E 007°06'0 0.0
2016-May-27 14:12N 43°34' E 007°06'0 0.0
2016-May-27 13:30N 43°34' E 007°06'0 0.0
2016-May-27 12:24N 43°34' E 007°06'0 0.0
2016-May-27 11:30N 43°34' E 007°06'0 0.0
2016-May-27 10:24N 43°34' E 007°06'0 0.0
2016-May-27 09:30N 43°34' E 007°06'0 0.0
2016-May-27 08:30N 43°34' E 007°06'1 1.0
2016-May-27 07:33N 43°34' E 007°04'0 0.1
2016-May-27 06:30N 43°34' E 007°05'0 0.0
2016-May-27 05:24N 43°34' E 007°05'0 0.0
2016-May-27 04:30N 43°34' E 007°05'0 0.0
2016-May-27 03:30N 43°34' E 007°05'0 0.0
2016-May-27 02:30N 43°34' E 007°05'0 0.0
2016-May-27 01:18N 43°34' E 007°05'0 0.0
2016-May-27 00:30N 43°34' E 007°05'0 0.0
2016-May-26 23:30N 43°34' E 007°05'0 0.0
2016-May-26 22:24N 43°34' E 007°05'0 0.0
2016-May-26 21:30N 43°34' E 007°05'0 0.0
2016-May-26 20:30N 43°34' E 007°05'0 0.0
2016-May-26 19:30N 43°34' E 007°05'0 0.0
2016-May-26 18:30N 43°34' E 007°05'0 0.0
2016-May-26 17:30N 43°34' E 007°05'0 0.0
2016-May-26 16:30N 43°34' E 007°05'0 0.0
2016-May-26 15:24N 43°34' E 007°05'0 0.0
2016-May-26 14:30N 43°34' E 007°05'0 0.0
2016-May-26 13:24N 43°34' E 007°05'0 0.0
2016-May-26 12:30N 43°34' E 007°05'0 0.0
2016-May-26 11:30N 43°34' E 007°05'0 0.0
2016-May-26 10:30N 43°34' E 007°05'0 0.0
2016-May-26 09:30N 43°34' E 007°05'0 0.0
2016-May-26 08:30N 43°34' E 007°05'0 0.0
2016-May-26 07:24N 43°34' E 007°05'0 0.0
2016-May-26 06:30N 43°34' E 007°05'0 0.0
2016-May-26 05:30N 43°34' E 007°05'0 0.0
2016-May-26 04:30N 43°34' E 007°05'0 0.0
2016-May-26 03:30N 43°34' E 007°05'0 0.0
2016-May-26 02:30N 43°34' E 007°05'0 0.0
2016-May-26 01:30N 43°34' E 007°05'0 0.0
2016-May-26 00:30N 43°34' E 007°05'0 0.0
2016-May-25 23:30N 43°34' E 007°05'0 0.0
2016-May-25 22:30N 43°34' E 007°05'0 0.0
2016-May-25 21:30N 43°34' E 007°05'0 0.0
2016-May-25 20:30N 43°34' E 007°05'0 0.0
2016-May-25 19:18N 43°34' E 007°05'0 0.0
2016-May-25 18:33N 43°34' E 007°05'0 0.0
2016-May-25 17:33N 43°34' E 007°05'0 0.0
2016-May-25 16:33N 43°34' E 007°05'0 0.1
2016-May-25 15:33N 43°34' E 007°05'1 1.3
2016-May-25 14:33N 43°34' E 007°06'0 0.0
2016-May-25 13:33N 43°34' E 007°06'0 0.0
2016-May-25 12:33N 43°34' E 007°06'0 0.0
2016-May-25 11:33N 43°34' E 007°06'0 0.0
2016-May-25 10:33N 43°34' E 007°06'0 0.0
2016-May-25 09:34N 43°34' E 007°06'0 0.0
2016-May-25 08:33N 43°34' E 007°06'0 0.0
2016-May-25 07:33N 43°34' E 007°06'0 0.0
2016-May-25 06:33N 43°33' E 007°06'0 0.0
2016-May-25 05:32N 43°33' E 007°06'0 0.0
2016-May-25 04:33N 43°34' E 007°06'0 0.0
2016-May-25 03:34N 43°33' E 007°06'0 0.0
2016-May-25 02:33N 43°33' E 007°06'0 0.0
2016-May-25 01:34N 43°33' E 007°06'0 0.0
2016-May-25 00:33N 43°34' E 007°06'0 0.0
2016-May-24 23:33N 43°34' E 007°06'0 0.0
2016-May-24 22:34N 43°33' E 007°06'0 0.0
2016-May-24 21:33N 43°34' E 007°06'0 0.0
2016-May-24 20:33N 43°33' E 007°06'0 0.0
2016-May-24 19:33N 43°34' E 007°06'0 0.0
2016-May-24 18:33N 43°34' E 007°06'0 0.0
2016-May-24 17:34N 43°33' E 007°06'0 0.0
2016-May-24 16:33N 43°34' E 007°06'0 0.0
2016-May-24 15:32N 43°34' E 007°06'0 0.0
2016-May-24 14:33N 43°34' E 007°06'0 0.0
2016-May-24 13:33N 43°34' E 007°06'0 0.0
2016-May-24 12:33N 43°34' E 007°06'0 0.0
2016-May-24 11:33N 43°34' E 007°06'0 0.0
2016-May-24 10:33N 43°34' E 007°06'0 0.0
2016-May-24 09:33N 43°34' E 007°06'0 0.0
2016-May-24 08:34N 43°34' E 007°06'3 3.2
2016-May-24 07:30N 43°32' E 007°02'0 0.0
2016-May-24 06:33N 43°32' E 007°02'0 0.0
2016-May-24 03:27N 43°32' E 007°02'0 0.0
2016-May-24 02:33N 43°32' E 007°02'0 0.0
2016-May-24 01:33N 43°32' E 007°02'0 0.0
2016-May-23 23:09N 43°32' E 007°02'0 0.0
2016-May-23 22:33N 43°32' E 007°02'0 0.0
2016-May-23 21:33N 43°32' E 007°02'0 0.0
2016-May-23 18:33N 43°32' E 007°02'0 0.0
2016-May-23 17:33N 43°32' E 007°02'0 0.0
2016-May-23 14:30N 43°32' E 007°02'0 0.0
2016-May-23 13:33N 43°32' E 007°02'0 0.0
2016-May-23 10:12N 43°32' E 007°02'0 0.0
2016-May-23 09:33N 43°32' E 007°02'0 0.0
2016-May-23 08:33N 43°32' E 007°02'0 0.0
2016-May-23 05:33N 43°32' E 007°02'0 0.0
2016-May-23 04:33N 43°32' E 007°02'0 0.0
2016-May-23 01:33N 43°32' E 007°02'0 0.0
2016-May-23 00:30N 43°32' E 007°02'0 0.0
2016-May-22 20:33N 43°32' E 007°02'0 0.0
2016-May-22 19:30N 43°32' E 007°02'0 0.0
2016-May-22 16:30N 43°32' E 007°02'0 0.0
2016-May-22 15:30N 43°32' E 007°02'0 0.0
2016-May-22 12:33N 43°32' E 007°02'0 0.0
2016-May-22 11:33N 43°32' E 007°02'0 0.0
2016-May-22 08:21N 43°32' E 007°02'0 0.0
2016-May-22 07:33N 43°32' E 007°02'0 0.0
2016-May-22 06:33N 43°32' E 007°02'0 0.0
2016-May-22 04:03N 43°32' E 007°02'0 0.0
2016-May-22 03:30N 43°32' E 007°02'0 0.0
2016-May-22 02:33N 43°32' E 007°02'0 0.0
2016-May-21 23:33N 43°32' E 007°02'0 0.0
2016-May-21 22:33N 43°32' E 007°02'0 0.0
2016-May-21 19:24N 43°32' E 007°02'0 0.0
2016-May-21 18:33N 43°32' E 007°02'0 0.0
2016-May-21 17:33N 43°32' E 007°02'0 0.0
2016-May-21 15:09N 43°32' E 007°02'0 0.0
2016-May-21 14:33N 43°32' E 007°02'0 0.0
2016-May-21 13:33N 43°32' E 007°02'0 0.0
2016-May-21 10:33N 43°32' E 007°02'0 0.0
2016-May-21 09:33N 43°32' E 007°02'0 0.0
2016-May-21 06:33N 43°32' E 007°02'0 0.0
2016-May-21 05:33N 43°32' E 007°02'0 0.0
2016-May-21 04:33N 43°32' E 007°02'0 0.0
2016-May-21 02:15N 43°32' E 007°02'0 0.0
2016-May-21 01:33N 43°32' E 007°02'0 0.0
2016-May-21 00:33N 43°32' E 007°02'0 0.0
2016-May-20 21:33N 43°32' E 007°02'0 0.0
2016-May-20 20:33N 43°32' E 007°02'0 0.0
2016-May-20 17:33N 43°32' E 007°02'0 0.0
2016-May-20 16:33N 43°32' E 007°02'0 0.0
2016-May-20 15:33N 43°32' E 007°02'4 3.9
2016-May-20 14:29N 43°31' E 006°57'0 0.0
2016-May-20 11:26N 43°31' E 006°57'0 0.0
2016-May-20 07:26N 43°31' E 006°57'0 0.0
2016-May-20 06:32N 43°31' E 006°57'0 0.0
2016-May-20 03:17N 43°31' E 006°57'0 0.0
2016-May-20 02:32N 43°31' E 006°57'0 0.0
2016-May-20 01:29N 43°31' E 006°57'0 0.0
2016-May-19 22:32N 43°31' E 006°57'0 0.0
2016-May-19 21:32N 43°31' E 006°57'0 0.0
2016-May-19 18:32N 43°31' E 006°57'0 0.0
2016-May-19 17:32N 43°31' E 006°57'0 0.0
2016-May-19 16:32N 43°31' E 006°57'0 0.0
2016-May-19 14:32N 43°31' E 006°57'0 0.1
2016-May-19 13:29N 43°31' E 006°57'0 0.0
2016-May-19 12:32N 43°31' E 006°57'0 0.0
2016-May-19 09:29N 43°31' E 006°57'0 0.0
2016-May-19 08:20N 43°31' E 006°57'0 0.0
2016-May-19 07:08N 43°31' E 006°57'0 0.0
2016-May-19 05:32N 43°31' E 006°57'0 0.0
2016-May-19 04:29N 43°31' E 006°57'0 0.0
2016-May-19 03:14N 43°31' E 006°57'0 0.0
2016-May-19 02:20N 43°31' E 006°57'0 0.0
2016-May-19 01:26N 43°31' E 006°57'0 0.0
2016-May-19 00:32N 43°31' E 006°57'0 0.0
2016-May-18 23:32N 43°31' E 006°57'0 0.0
2016-May-18 20:32N 43°31' E 006°57'0 0.0
2016-May-18 19:17N 43°31' E 006°57'0 0.0
2016-May-18 16:32N 43°31' E 006°57'  
Track history (hours):
 
Tides and Currents Weather Stations Pressure Air Temp Water Temp Dewpoint Dewpoint Depression Visibility Wind Speed Wind Dir Waves Ship Positions

Dest Fox Harbr Too

Last reported at 2016-May-28 16:29 UTC. Time now 2016-May-29 03:49 UTC.
Position N 44°08' E 008°16'.

Length 50 m; draft 2.4 m.

Type: Pleasure craft. MMSI: 319370000.

Date/timePositionNaut miles runAvg speedWind from/ knotsBaromVisibWave heightAir tempDewpointWater temp
2016-May-28 16:29N 44°08' E 008°16'0 0.0
2016-May-28 15:32N 44°08' E 008°16'0 0.0
2016-May-28 08:29N 44°08' E 008°16'0 0.0
2016-May-28 07:17N 44°08' E 008°16'0 0.0
2016-May-28 01:20N 44°08' E 008°16'0 0.0
2016-May-28 00:29N 44°08' E 008°16'54 7.8
2016-May-27 17:29N 43°34' E 007°17'8 8.1
2016-May-27 16:30N 43°34' E 007°06'0 0.0
2016-May-27 15:24N 43°34' E 007°06'0 0.0
2016-May-27 14:12N 43°34' E 007°06'0 0.0
2016-May-27 13:30N 43°34' E 007°06'0 0.0
2016-May-27 12:24N 43°34' E 007°06'0 0.0
2016-May-27 11:30N 43°34' E 007°06'0 0.0
2016-May-27 10:24N 43°34' E 007°06'0 0.0
2016-May-27 09:30N 43°34' E 007°06'0 0.0
2016-May-27 08:30N 43°34' E 007°06'1 1.0
2016-May-27 07:33N 43°34' E 007°04'0 0.1
2016-May-27 06:30N 43°34' E 007°05'0 0.0
2016-May-27 05:24N 43°34' E 007°05'0 0.0
2016-May-27 04:30N 43°34' E 007°05'0 0.0
2016-May-27 03:30N 43°34' E 007°05'0 0.0
2016-May-27 02:30N 43°34' E 007°05'0 0.0
2016-May-27 01:18N 43°34' E 007°05'0 0.0
2016-May-27 00:30N 43°34' E 007°05'0 0.0
2016-May-26 23:30N 43°34' E 007°05'0 0.0
2016-May-26 22:24N 43°34' E 007°05'0 0.0
2016-May-26 21:30N 43°34' E 007°05'0 0.0
2016-May-26 20:30N 43°34' E 007°05'0 0.0
2016-May-26 19:30N 43°34' E 007°05'0 0.0
2016-May-26 18:30N 43°34' E 007°05'0 0.0
2016-May-26 17:30N 43°34' E 007°05'0 0.0
2016-May-26 16:30N 43°34' E 007°05'0 0.0
2016-May-26 15:24N 43°34' E 007°05'0 0.0
2016-May-26 14:30N 43°34' E 007°05'0 0.0
2016-May-26 13:24N 43°34' E 007°05'0 0.0
2016-May-26 12:30N 43°34' E 007°05'0 0.0
2016-May-26 11:30N 43°34' E 007°05'0 0.0
2016-May-26 10:30N 43°34' E 007°05'0 0.0
2016-May-26 09:30N 43°34' E 007°05'0 0.0
2016-May-26 08:30N 43°34' E 007°05'0 0.0
2016-May-26 07:24N 43°34' E 007°05'0 0.0
2016-May-26 06:30N 43°34' E 007°05'0 0.0
2016-May-26 05:30N 43°34' E 007°05'0 0.0
2016-May-26 04:30N 43°34' E 007°05'0 0.0
2016-May-26 03:30N 43°34' E 007°05'0 0.0
2016-May-26 02:30N 43°34' E 007°05'0 0.0
2016-May-26 01:30N 43°34' E 007°05'0 0.0
2016-May-26 00:30N 43°34' E 007°05'0 0.0
2016-May-25 23:30N 43°34' E 007°05'0 0.0
2016-May-25 22:30N 43°34' E 007°05'0 0.0
2016-May-25 21:30N 43°34' E 007°05'0 0.0
2016-May-25 20:30N 43°34' E 007°05'0 0.0
2016-May-25 19:18N 43°34' E 007°05'0 0.0
2016-May-25 18:33N 43°34' E 007°05'0 0.0
2016-May-25 17:33N 43°34' E 007°05'0 0.0
2016-May-25 16:33N 43°34' E 007°05'0 0.1
2016-May-25 15:33N 43°34' E 007°05'1 1.3
2016-May-25 14:33N 43°34' E 007°06'0 0.0
2016-May-25 13:33N 43°34' E 007°06'0 0.0
2016-May-25 12:33N 43°34' E 007°06'0 0.0
2016-May-25 11:33N 43°34' E 007°06'0 0.0
2016-May-25 10:33N 43°34' E 007°06'0 0.0
2016-May-25 09:34N 43°34' E 007°06'0 0.0
2016-May-25 08:33N 43°34' E 007°06'0 0.0
2016-May-25 07:33N 43°34' E 007°06'0 0.0
2016-May-25 06:33N 43°33' E 007°06'0 0.0
2016-May-25 05:32N 43°33' E 007°06'0 0.0
2016-May-25 04:33N 43°34' E 007°06'0 0.0
2016-May-25 03:34N 43°33' E 007°06'0 0.0
2016-May-25 02:33N 43°33' E 007°06'0 0.0
2016-May-25 01:34N 43°33' E 007°06'0 0.0
2016-May-25 00:33N 43°34' E 007°06'0 0.0
2016-May-24 23:33N 43°34' E 007°06'0 0.0
2016-May-24 22:34N 43°33' E 007°06'0 0.0
2016-May-24 21:33N 43°34' E 007°06'0 0.0
2016-May-24 20:33N 43°33' E 007°06'0 0.0
2016-May-24 19:33N 43°34' E 007°06'0 0.0
2016-May-24 18:33N 43°34' E 007°06'0 0.0
2016-May-24 17:34N 43°33' E 007°06'0 0.0
2016-May-24 16:33N 43°34' E 007°06'0 0.0
2016-May-24 15:32N 43°34' E 007°06'0 0.0
2016-May-24 14:33N 43°34' E 007°06'0 0.0
2016-May-24 13:33N 43°34' E 007°06'0 0.0
2016-May-24 12:33N 43°34' E 007°06'0 0.0
2016-May-24 11:33N 43°34' E 007°06'0 0.0
2016-May-24 10:33N 43°34' E 007°06'0 0.0
2016-May-24 09:33N 43°34' E 007°06'0 0.0
2016-May-24 08:34N 43°34' E 007°06'3 3.2
2016-May-24 07:30N 43°32' E 007°02'0 0.0
2016-May-24 06:33N 43°32' E 007°02'0 0.0
2016-May-24 03:27N 43°32' E 007°02'0 0.0
2016-May-24 02:33N 43°32' E 007°02'0 0.0
2016-May-24 01:33N 43°32' E 007°02'0 0.0
2016-May-23 23:09N 43°32' E 007°02'0 0.0
2016-May-23 22:33N 43°32' E 007°02'0 0.0
2016-May-23 21:33N 43°32' E 007°02'0 0.0
2016-May-23 18:33N 43°32' E 007°02'0 0.0
2016-May-23 17:33N 43°32' E 007°02'0 0.0
2016-May-23 14:30N 43°32' E 007°02'0 0.0
2016-May-23 13:33N 43°32' E 007°02'0 0.0
2016-May-23 10:12N 43°32' E 007°02'0 0.0
2016-May-23 09:33N 43°32' E 007°02'0 0.0
2016-May-23 08:33N 43°32' E 007°02'0 0.0
2016-May-23 05:33N 43°32' E 007°02'0 0.0
2016-May-23 04:33N 43°32' E 007°02'0 0.0
2016-May-23 01:33N 43°32' E 007°02'0 0.0
2016-May-23 00:30N 43°32' E 007°02'0 0.0
2016-May-22 20:33N 43°32' E 007°02'0 0.0
2016-May-22 19:30N 43°32' E 007°02'0 0.0
2016-May-22 16:30N 43°32' E 007°02'0 0.0
2016-May-22 15:30N 43°32' E 007°02'0 0.0
2016-May-22 12:33N 43°32' E 007°02'0 0.0
2016-May-22 11:33N 43°32' E 007°02'0 0.0
2016-May-22 08:21N 43°32' E 007°02'0 0.0
2016-May-22 07:33N 43°32' E 007°02'0 0.0
2016-May-22 06:33N 43°32' E 007°02'0 0.0
2016-May-22 04:03N 43°32' E 007°02'0 0.0
2016-May-22 03:30N 43°32' E 007°02'0 0.0
2016-May-22 02:33N 43°32' E 007°02'0 0.0
2016-May-21 23:33N 43°32' E 007°02'0 0.0
2016-May-21 22:33N 43°32' E 007°02'0 0.0
2016-May-21 19:24N 43°32' E 007°02'0 0.0
2016-May-21 18:33N 43°32' E 007°02'0 0.0
2016-May-21 17:33N 43°32' E 007°02'0 0.0
2016-May-21 15:09N 43°32' E 007°02'0 0.0
2016-May-21 14:33N 43°32' E 007°02'0 0.0
2016-May-21 13:33N 43°32' E 007°02'0 0.0
2016-May-21 10:33N 43°32' E 007°02'0 0.0
2016-May-21 09:33N 43°32' E 007°02'0 0.0
2016-May-21 06:33N 43°32' E 007°02'0 0.0
2016-May-21 05:33N 43°32' E 007°02'0 0.0
2016-May-21 04:33N 43°32' E 007°02'0 0.0
2016-May-21 02:15N 43°32' E 007°02'0 0.0
2016-May-21 01:33N 43°32' E 007°02'0 0.0
2016-May-21 00:33N 43°32' E 007°02'0 0.0
2016-May-20 21:33N 43°32' E 007°02'0 0.0
2016-May-20 20:33N 43°32' E 007°02'0 0.0
2016-May-20 17:33N 43°32' E 007°02'0 0.0
2016-May-20 16:33N 43°32' E 007°02'0 0.0
2016-May-20 15:33N 43°32' E 007°02'4 3.9
2016-May-20 14:29N 43°31' E 006°57'0 0.0
2016-May-20 11:26N 43°31' E 006°57'0 0.0
2016-May-20 07:26N 43°31' E 006°57'0 0.0
2016-May-20 06:32N 43°31' E 006°57'0 0.0
2016-May-20 03:17N 43°31' E 006°57'0 0.0
2016-May-20 02:32N 43°31' E 006°57'0 0.0
2016-May-20 01:29N 43°31' E 006°57'0 0.0
2016-May-19 22:32N 43°31' E 006°57'0 0.0
2016-May-19 21:32N 43°31' E 006°57'0 0.0
2016-May-19 18:32N 43°31' E 006°57'0 0.0
2016-May-19 17:32N 43°31' E 006°57'0 0.0
2016-May-19 16:32N 43°31' E 006°57'0 0.0
2016-May-19 14:32N 43°31' E 006°57'0 0.1
2016-May-19 13:29N 43°31' E 006°57'0 0.0
2016-May-19 12:32N 43°31' E 006°57'0 0.0
2016-May-19 09:29N 43°31' E 006°57'0 0.0
2016-May-19 08:20N 43°31' E 006°57'0 0.0
2016-May-19 07:08N 43°31' E 006°57'0 0.0
2016-May-19 05:32N 43°31' E 006°57'0 0.0
2016-May-19 04:29N 43°31' E 006°57'0 0.0
2016-May-19 03:14N 43°31' E 006°57'0 0.0
2016-May-19 02:20N 43°31' E 006°57'0 0.0
2016-May-19 01:26N 43°31' E 006°57'0 0.0
2016-May-19 00:32N 43°31' E 006°57'0 0.0
2016-May-18 23:32N 43°31' E 006°57'0 0.0
2016-May-18 20:32N 43°31' E 006°57'0 0.0
2016-May-18 19:17N 43°31' E 006°57'0 0.0
2016-May-18 16:32N 43°31' E 006°57'  

Dump ship's entire track history